Time;durP1;ratioP1;P1;durP2;ratioP2;P2;SDS_P1;SDS_P2;PMS_P1;PMS_P2;Temp;Humidity;BMP_temperature;BMP_pressure;BME280_temperature;BME280_humidity;BME280_pressure;Samples;Min_cycle;Max_cycle;Signal;HPM_P1;HPM_P2
2022/03/19 00:00:33;;;;;;;6.65;3.40;;;7.00;97.40;;;;;;5046564;28;20719;-63
2022/03/19 00:03:01;;;;;;;6.50;3.30;;;7.00;97.30;;;;;;5045774;28;20204;-62
2022/03/19 00:05:29;;;;;;;2.72;2.45;;;7.00;97.30;;;;;;5045932;28;20273;-65
2022/03/19 00:07:57;;;;;;;10.15;3.72;;;7.00;97.50;;;;;;5045323;28;20720;-61
2022/03/19 00:10:27;;;;;;;3.97;2.65;;;7.00;97.60;;;;;;5046481;28;20243;-61
2022/03/19 00:12:54;;;;;;;3.90;2.75;;;6.90;98.00;;;;;;5045282;28;20269;-62
2022/03/19 00:15:22;;;;;;;3.65;2.80;;;6.90;98.00;;;;;;5046123;28;20287;-60
2022/03/19 00:17:51;;;;;;;4.93;2.55;;;6.90;98.00;;;;;;5046104;28;20760;-61
2022/03/19 00:20:19;;;;;;;8.35;3.53;;;6.90;98.10;;;;;;5045942;28;20200;-62
2022/03/19 00:22:48;;;;;;;6.35;3.30;;;6.90;98.20;;;;;;5045482;28;20200;-62
2022/03/19 00:25:16;;;;;;;7.75;3.42;;;6.90;98.20;;;;;;5046041;28;20703;-61
2022/03/19 00:27:45;;;;;;;4.60;3.05;;;6.90;98.70;;;;;;5045942;28;20223;-62
2022/03/19 00:30:14;;;;;;;7.55;3.38;;;6.90;98.70;;;;;;5045893;28;20208;-61
2022/03/19 00:32:42;;;;;;;6.85;3.22;;;6.90;99.00;;;;;;5045162;28;20413;-61
2022/03/19 00:35:10;;;;;;;7.25;3.38;;;6.90;98.80;;;;;;5045719;28;20200;-61
2022/03/19 00:37:46;;;;;;;5.13;2.60;;;6.90;99.10;;;;;;5050289;28;20311;-62
2022/03/19 00:40:16;;;;;;;7.15;3.00;;;6.90;99.40;;;;;;5043894;28;20235;-62
2022/03/19 00:42:47;;;;;;;6.88;2.97;;;6.90;99.20;;;;;;5045283;28;20249;-61
2022/03/19 00:45:16;;;;;;;6.85;3.25;;;6.90;99.50;;;;;;5045504;28;20223;-61
2022/03/19 00:47:44;;;;;;;5.03;2.85;;;6.90;99.60;;;;;;5045510;28;20232;-61
2022/03/19 00:50:12;;;;;;;3.17;2.78;;;6.90;99.90;;;;;;5048749;28;20204;-62
2022/03/19 00:52:40;;;;;;;5.57;3.10;;;6.90;99.80;;;;;;5049526;28;20704;-62
2022/03/19 00:55:09;;;;;;;5.60;3.25;;;6.90;99.90;;;;;;5049801;28;20258;-62
2022/03/19 00:57:39;;;;;;;9.50;3.67;;;6.90;99.90;;;;;;5049397;28;20298;-62
2022/03/19 01:00:11;;;;;;;5.78;3.17;;;6.90;99.90;;;;;;5049712;28;20641;-62
2022/03/19 01:02:40;;;;;;;4.95;2.95;;;6.90;99.90;;;;;;5048002;28;20699;-60
2022/03/19 01:05:10;;;;;;;5.22;3.50;;;6.90;99.90;;;;;;5051890;28;20243;-61
2022/03/19 01:07:42;;;;;;;5.22;3.13;;;6.90;99.90;;;;;;5054236;28;20255;-60
2022/03/19 01:10:12;;;;;;;5.03;2.90;;;6.90;99.90;;;;;;5053691;28;20295;-61
2022/03/19 01:12:40;;;;;;;5.57;3.03;;;6.90;99.90;;;;;;5049248;28;20723;-60
2022/03/19 01:15:10;;;;;;;5.75;3.00;;;6.90;99.90;;;;;;5053600;28;20638;-60
2022/03/19 01:17:39;;;;;;;4.15;3.25;;;6.90;99.90;;;;;;5053693;28;20242;-60
2022/03/19 01:20:08;;;;;;;5.85;3.47;;;6.90;99.90;;;;;;5053422;28;20227;-61
2022/03/19 01:22:36;;;;;;;5.05;2.80;;;6.90;99.90;;;;;;5052751;28;20595;-61
2022/03/19 01:25:05;;;;;;;7.22;3.10;;;6.90;99.90;;;;;;5052969;28;20208;-61
2022/03/19 01:27:33;;;;;;;6.13;3.40;;;6.90;99.90;;;;;;5049563;28;20255;-60
2022/03/19 01:30:01;;;;;;;5.05;3.10;;;6.90;99.90;;;;;;5053441;28;20279;-61
2022/03/19 01:32:31;;;;;;;5.40;2.83;;;6.80;99.90;;;;;;5053071;28;20250;-60
2022/03/19 01:34:58;;;;;;;4.55;3.10;;;6.80;99.90;;;;;;5053454;28;20666;-60
2022/03/19 01:37:26;;;;;;;4.68;3.05;;;6.90;99.90;;;;;;5056635;28;20561;-60
2022/03/19 01:39:55;;;;;;;4.43;2.83;;;6.80;99.90;;;;;;5054244;28;20794;-60
2022/03/19 01:42:24;;;;;;;5.97;2.72;;;6.90;99.90;;;;;;5054263;28;20272;-61
2022/03/19 01:44:53;;;;;;;6.15;2.78;;;6.80;99.90;;;;;;5054576;28;20287;-60
2022/03/19 01:47:23;;;;;;;6.00;2.97;;;6.80;99.90;;;;;;5051065;28;20319;-61
2022/03/19 01:49:52;;;;;;;4.75;2.65;;;6.80;99.90;;;;;;5054276;28;20563;-61
2022/03/19 01:52:20;;;;;;;3.88;2.47;;;6.80;99.90;;;;;;5052059;28;20291;-61
2022/03/19 01:54:50;;;;;;;4.32;2.88;;;6.80;99.90;;;;;;5053406;28;20293;-61
2022/03/19 01:57:21;;;;;;;5.10;2.63;;;6.80;99.90;;;;;;5051398;28;20238;-61
2022/03/19 01:59:49;;;;;;;9.52;3.30;;;6.70;99.90;;;;;;5053005;28;20315;-61
2022/03/19 02:02:19;;;;;;;7.20;3.30;;;6.80;99.90;;;;;;5053565;28;20287;-61
2022/03/19 02:04:47;;;;;;;7.00;3.95;;;6.80;99.90;;;;;;5054270;28;20282;-61
2022/03/19 02:07:16;;;;;;;7.25;2.90;;;6.80;99.90;;;;;;5053584;28;20704;-61
2022/03/19 02:09:44;;;;;;;4.30;3.03;;;6.70;99.90;;;;;;5053737;28;20299;-61
2022/03/19 02:12:12;;;;;;;5.07;3.25;;;6.80;99.90;;;;;;5051647;28;20323;-61
2022/03/19 02:14:41;;;;;;;7.72;3.38;;;6.80;99.90;;;;;;5052425;28;20712;-61
2022/03/19 02:17:10;;;;;;;7.07;3.65;;;6.70;99.90;;;;;;5053841;28;20311;-61
2022/03/19 02:19:47;;;;;;;9.50;3.33;;;6.70;99.90;;;;;;5053856;28;20215;-61
2022/03/19 02:22:17;;;;;;;4.82;2.78;;;6.70;99.90;;;;;;5053317;28;20204;-61
2022/03/19 02:27:33;;;;;;;8.25;4.25;;;6.70;99.90;;;;;;5053323;28;20247;-61
2022/03/19 02:30:01;;;;;;;6.10;3.45;;;6.70;99.90;;;;;;5053569;28;20316;-61
2022/03/19 02:32:29;;;;;;;6.50;4.07;;;6.70;99.90;;;;;;5051395;28;20231;-61
2022/03/19 02:34:57;;;;;;;6.90;4.25;;;6.70;99.90;;;;;;5050456;28;20214;-61
2022/03/19 02:37:25;;;;;;;6.47;3.83;;;6.70;99.90;;;;;;5051006;28;20650;-61
2022/03/19 02:39:55;;;;;;;6.65;4.57;;;6.70;99.90;;;;;;5052301;28;20196;-61
2022/03/19 02:42:23;;;;;;;7.00;4.40;;;6.70;99.90;;;;;;5060171;28;20279;-61
2022/03/19 02:44:51;;;;;;;6.65;4.30;;;6.70;99.90;;;;;;5053337;28;20291;-61
2022/03/19 02:47:19;;;;;;;7.57;4.68;;;6.70;99.90;;;;;;5052188;28;20311;-61
2022/03/19 02:49:47;;;;;;;10.20;4.60;;;6.60;99.90;;;;;;5050717;28;20278;-60
2022/03/19 02:52:14;;;;;;;6.10;4.60;;;6.60;99.90;;;;;;5048785;28;20236;-61
2022/03/19 02:54:42;;;;;;;7.10;4.88;;;6.60;99.90;;;;;;5050995;28;20635;-61
2022/03/19 02:57:11;;;;;;;9.15;4.60;;;6.60;99.90;;;;;;5051765;28;20307;-60
2022/03/19 02:59:39;;;;;;;7.43;4.82;;;6.60;99.90;;;;;;5050088;28;20204;-61
2022/03/19 03:02:08;;;;;;;8.07;5.82;;;6.50;99.90;;;;;;5050927;28;20638;-59
2022/03/19 03:04:36;;;;;;;6.22;4.40;;;6.50;99.90;;;;;;5052161;28;20604;-62
2022/03/19 03:07:05;;;;;;;8.07;5.05;;;6.50;99.90;;;;;;5045748;28;20231;-61
2022/03/19 03:09:33;;;;;;;11.80;6.32;;;6.50;99.90;;;;;;5051851;28;20279;-61
2022/03/19 03:12:02;;;;;;;10.60;4.95;;;6.50;99.90;;;;;;5053193;28;20298;-61
2022/03/19 03:14:31;;;;;;;10.93;4.95;;;6.50;99.90;;;;;;5054333;28;20208;-61
2022/03/19 03:17:00;;;;;;;7.05;4.75;;;6.50;99.90;;;;;;5049753;28;20278;-61
2022/03/19 03:19:28;;;;;;;10.10;5.53;;;6.50;99.90;;;;;;5049387;28;20291;-61
2022/03/19 03:21:56;;;;;;;9.27;5.25;;;6.50;99.90;;;;;;5051363;28;20287;-61
2022/03/19 03:24:25;;;;;;;9.68;4.80;;;6.50;99.90;;;;;;5051377;28;20258;-61
2022/03/19 03:26:53;;;;;;;7.65;5.38;;;6.50;99.90;;;;;;5050680;28;20223;-61
2022/03/19 03:29:21;;;;;;;10.43;5.43;;;6.40;99.90;;;;;;5052092;28;20236;-61
2022/03/19 03:31:50;;;;;;;10.82;5.70;;;6.40;99.90;;;;;;5049955;28;20700;-60
2022/03/19 03:34:18;;;;;;;6.82;4.75;;;6.40;99.90;;;;;;5051467;28;20303;-61
2022/03/19 03:36:46;;;;;;;10.77;5.80;;;6.30;99.90;;;;;;5051178;28;20287;-62
2022/03/19 03:39:14;;;;;;;11.75;5.35;;;6.30;99.90;;;;;;5051619;28;20665;-61
2022/03/19 03:41:42;;;;;;;8.10;5.13;;;6.30;99.90;;;;;;5052777;28;20291;-62
2022/03/19 03:44:09;;;;;;;8.25;4.78;;;6.20;99.90;;;;;;5051259;28;20235;-61
2022/03/19 03:46:37;;;;;;;10.43;4.80;;;6.20;99.90;;;;;;5051180;28;20310;-61
2022/03/19 03:49:08;;;;;;;6.10;4.25;;;6.30;99.90;;;;;;5051088;28;20673;-61
2022/03/19 03:51:35;;;;;;;8.48;4.65;;;6.20;99.90;;;;;;5050493;28;20224;-62
2022/03/19 03:54:05;;;;;;;7.75;4.78;;;6.30;99.90;;;;;;5050183;28;20231;-61
2022/03/19 03:56:33;;;;;;;8.63;4.72;;;6.20;99.90;;;;;;5049886;28;20775;-61
2022/03/19 03:59:01;;;;;;;8.13;5.05;;;6.10;99.90;;;;;;5049926;28;20639;-60
2022/03/19 04:01:29;;;;;;;6.43;4.05;;;6.10;99.90;;;;;;5050704;28;20200;-60
2022/03/19 04:03:57;;;;;;;7.75;4.80;;;5.60;99.90;;;;;;5051350;28;20203;-61
2022/03/19 04:06:26;;;;;;;6.97;4.03;;;6.00;99.90;;;;;;5050694;28;20286;-59
2022/03/19 04:08:54;;;;;;;9.23;4.13;;;6.00;99.90;;;;;;5050069;28;20273;-60
2022/03/19 04:11:22;;;;;;;7.03;3.78;;;5.90;99.90;;;;;;5049562;28;20824;-60
2022/03/19 04:13:50;;;;;;;6.53;4.47;;;5.90;99.90;;;;;;5056614;28;20235;-60
2022/03/19 04:16:23;;;;;;;8.68;4.10;;;5.90;99.90;;;;;;5045059;28;20227;-61
2022/03/19 04:18:51;;;;;;;7.80;4.43;;;5.90;99.90;;;;;;5050372;28;20616;-61
2022/03/19 04:21:19;;;;;;;6.57;3.90;;;5.90;99.90;;;;;;5050603;28;20264;-60
2022/03/19 04:23:48;;;;;;;5.38;3.05;;;5.90;99.90;;;;;;5048674;28;20199;-61
2022/03/19 04:26:16;;;;;;;5.75;3.25;;;5.80;99.90;;;;;;5048585;28;20224;-61
2022/03/19 04:28:44;;;;;;;7.10;3.60;;;5.90;99.90;;;;;;5049555;28;20294;-61
2022/03/19 04:31:12;;;;;;;6.70;3.25;;;5.90;99.90;;;;;;5049025;28;20295;-61
2022/03/19 04:33:40;;;;;;;5.85;2.80;;;5.80;99.90;;;;;;5048945;28;20211;-61
2022/03/19 04:38:54;;;;;;;7.03;3.10;;;5.90;99.90;;;;;;5049286;28;20231;-64
2022/03/19 04:41:22;;;;;;;6.18;3.65;;;5.80;99.90;;;;;;5050681;28;20246;-63
2022/03/19 04:43:51;;;;;;;4.47;3.00;;;5.80;99.90;;;;;;5056991;28;20282;-63
2022/03/19 04:46:19;;;;;;;5.30;3.20;;;5.70;99.90;;;;;;5049800;28;20282;-63
2022/03/19 04:48:47;;;;;;;6.10;3.35;;;5.70;99.90;;;;;;5049345;28;20195;-63
2022/03/19 04:51:18;;;;;;;5.72;3.25;;;5.70;99.90;;;;;;5050126;28;20238;-63
2022/03/19 04:53:50;;;;;;;6.03;3.28;;;5.70;99.90;;;;;;5049097;28;20634;-63
2022/03/19 04:56:20;;;;;;;4.85;3.20;;;5.60;99.90;;;;;;5030998;28;20749;-63
2022/03/19 04:58:49;;;;;;;4.32;2.65;;;5.60;99.90;;;;;;5050041;28;20200;-63
2022/03/19 05:01:17;;;;;;;7.03;3.25;;;5.60;99.90;;;;;;5048596;28;20263;-63
2022/03/19 05:03:46;;;;;;;4.95;2.80;;;5.60;99.90;;;;;;5048564;28;20618;-63
2022/03/19 05:06:14;;;;;;;6.03;3.28;;;5.60;99.90;;;;;;5049843;28;20286;-63
2022/03/19 05:08:42;;;;;;;4.57;3.03;;;5.60;99.90;;;;;;5049404;28;20314;-61
2022/03/19 05:11:16;;;;;;;6.63;2.90;;;5.60;99.90;;;;;;5050365;28;20322;-61
2022/03/19 05:13:48;;;;;;;6.90;3.05;;;5.60;99.90;;;;;;5051411;28;20286;-61
2022/03/19 05:16:18;;;;;;;6.28;2.97;;;5.60;99.90;;;;;;5043817;28;20199;-64
2022/03/19 05:18:46;;;;;;;5.15;3.30;;;5.60;99.90;;;;;;5049912;28;20220;-64
2022/03/19 05:21:14;;;;;;;8.05;3.40;;;5.50;99.90;;;;;;5049799;28;20290;-63
2022/03/19 05:23:43;;;;;;;5.32;2.88;;;5.40;99.90;;;;;;5047667;28;20254;-63
2022/03/19 05:26:11;;;;;;;4.50;2.65;;;5.40;99.90;;;;;;5048981;28;20250;-63
2022/03/19 05:28:39;;;;;;;3.58;2.53;;;5.40;99.90;;;;;;5050195;28;20652;-63
2022/03/19 05:31:29;;;;;;;7.05;3.25;;;5.40;99.90;;;;;;5050050;28;20199;-61
2022/03/19 05:36:43;;;;;;;6.10;3.55;;;5.40;99.90;;;;;;5046910;28;20293;-61
2022/03/19 05:39:11;;;;;;;6.07;2.95;;;5.40;99.90;;;;;;5047623;28;20292;-60
2022/03/19 05:41:39;;;;;;;6.40;3.30;;;5.40;99.90;;;;;;5046565;28;20227;-61
2022/03/19 05:44:07;;;;;;;5.57;2.92;;;5.50;99.90;;;;;;5044882;28;20283;-61
2022/03/19 05:46:36;;;;;;;5.25;3.13;;;5.50;99.90;;;;;;5045481;28;20323;-61
2022/03/19 05:49:04;;;;;;;6.93;3.20;;;5.40;99.90;;;;;;5046034;28;20223;-61
2022/03/19 05:51:32;;;;;;;7.13;3.40;;;5.50;99.90;;;;;;5052085;28;20631;-61
2022/03/19 05:54:00;;;;;;;6.57;3.33;;;5.60;99.90;;;;;;5053025;28;20230;-60
2022/03/19 05:56:28;;;;;;;6.82;3.00;;;5.70;99.90;;;;;;5052150;28;20220;-60
2022/03/19 05:58:56;;;;;;;6.22;3.38;;;6.30;99.90;;;;;;5049313;28;20744;-60
2022/03/19 06:01:26;;;;;;;5.38;3.70;;;5.70;99.90;;;;;;5051250;28;20725;-60
2022/03/19 06:03:56;;;;;;;9.77;3.88;;;5.80;99.90;;;;;;5053033;28;20680;-61
2022/03/19 06:06:25;;;;;;;9.60;4.25;;;5.80;99.90;;;;;;5051104;28;20240;-61
2022/03/19 06:08:54;;;;;;;5.03;3.35;;;5.80;99.90;;;;;;5052168;28;20616;-61
2022/03/19 06:11:22;;;;;;;7.05;3.60;;;5.80;99.90;;;;;;5055514;28;20223;-60
2022/03/19 06:13:50;;;;;;;6.07;3.30;;;5.90;99.90;;;;;;5054555;28;20283;-61
2022/03/19 06:16:18;;;;;;;6.10;4.13;;;5.90;99.90;;;;;;5051334;28;20204;-61
2022/03/19 06:18:50;;;;;;;5.65;3.60;;;6.00;99.90;;;;;;5052312;28;20199;-60
2022/03/19 06:21:19;;;;;;;5.63;3.70;;;5.90;99.90;;;;;;5052592;28;20224;-61
2022/03/19 06:23:47;;;;;;;5.25;3.05;;;6.00;99.90;;;;;;5051511;28;20290;-61
2022/03/19 06:26:15;;;;;;;6.05;3.20;;;6.10;99.90;;;;;;5052717;28;20669;-60
2022/03/19 06:28:43;;;;;;;6.78;3.75;;;6.10;99.90;;;;;;5053355;28;20322;-61
2022/03/19 06:31:11;;;;;;;7.75;3.63;;;6.20;99.90;;;;;;5050314;28;20283;-61
2022/03/19 06:33:41;;;;;;;9.18;3.70;;;6.30;99.90;;;;;;5049887;28;20208;-62
2022/03/19 06:38:56;;;;;;;4.40;3.50;;;6.50;99.90;;;;;;5045385;28;20196;-63
2022/03/19 06:41:24;;;;;;;6.28;3.97;;;6.50;99.90;;;;;;5046810;28;20200;-61
2022/03/19 06:43:52;;;;;;;6.13;3.90;;;6.60;99.90;;;;;;5047754;28;20204;-61
2022/03/19 06:46:21;;;;;;;8.05;3.67;;;6.70;99.90;;;;;;5045955;28;20270;-61
2022/03/19 06:48:49;;;;;;;5.85;4.13;;;6.80;99.90;;;;;;5046403;28;20207;-62
2022/03/19 06:51:18;;;;;;;9.80;4.70;;;6.90;99.90;;;;;;5046467;28;20228;-61
2022/03/19 06:53:47;;;;;;;9.55;4.18;;;7.10;99.90;;;;;;5047399;28;20242;-61
2022/03/19 06:56:17;;;;;;;10.25;4.80;;;7.20;99.90;;;;;;5046065;28;20341;-61
2022/03/19 06:58:45;;;;;;;5.45;4.15;;;7.30;99.90;;;;;;5047716;28;20291;-64
2022/03/19 07:01:15;;;;;;;10.73;4.47;;;7.40;99.90;;;;;;5045549;28;20310;-63
2022/03/19 07:03:45;;;;;;;8.30;4.20;;;7.40;99.90;;;;;;5047536;28;20214;-62
2022/03/19 07:06:15;;;;;;;6.50;3.50;;;7.50;99.90;;;;;;5046896;28;20207;-64
2022/03/19 07:09:03;;;;;;;6.30;4.20;;;7.60;99.90;;;;;;5050617;28;20224;-63
2022/03/19 07:11:32;;;;;;;6.32;3.83;;;7.70;99.90;;;;;;5045608;28;20210;-61
2022/03/19 07:14:03;;;;;;;7.07;4.10;;;7.80;99.90;;;;;;5045877;28;20208;-60
2022/03/19 07:16:30;;;;;;;9.82;4.68;;;7.90;99.90;;;;;;5047069;28;20246;-61
2022/03/19 07:18:59;;;;;;;9.38;4.72;;;7.90;99.90;;;;;;5045768;28;20630;-61
2022/03/19 07:21:26;;;;;;;8.23;4.13;;;8.00;99.90;;;;;;5047080;28;20296;-61
2022/03/19 07:23:54;;;;;;;8.63;3.70;;;8.10;99.90;;;;;;5045330;28;20283;-61
2022/03/19 07:26:22;;;;;;;4.80;3.63;;;8.20;99.90;;;;;;5046399;28;20259;-62
2022/03/19 07:28:51;;;;;;;5.93;3.88;;;8.20;99.90;;;;;;5043605;28;20215;-61
2022/03/19 07:31:19;;;;;;;6.95;4.40;;;8.30;99.90;;;;;;5047143;28;20306;-61
2022/03/19 07:33:47;;;;;;;8.73;4.40;;;8.30;99.90;;;;;;5045447;28;20228;-61
2022/03/19 07:36:15;;;;;;;7.03;3.95;;;8.40;99.90;;;;;;5050101;28;20290;-60
2022/03/19 07:38:43;;;;;;;8.90;4.30;;;8.50;99.90;;;;;;5048309;28;20245;-61
2022/03/19 07:43:59;;;;;;;5.63;3.75;;;8.70;99.90;;;;;;5043891;28;20287;-61
2022/03/19 07:46:27;;;;;;;6.97;3.67;;;8.90;99.90;;;;;;5046805;28;20235;-61
2022/03/19 07:48:55;;;;;;;9.88;4.45;;;8.90;99.90;;;;;;5046482;28;20639;-62
2022/03/19 07:51:23;;;;;;;8.95;4.03;;;9.00;99.90;;;;;;5043455;28;20315;-61
2022/03/19 07:53:51;;;;;;;11.98;4.65;;;9.10;99.90;;;;;;5045440;28;20728;-62
2022/03/19 07:56:18;;;;;;;4.57;4.07;;;9.20;99.90;;;;;;5046042;28;20282;-62
2022/03/19 07:58:50;;;;;;;6.18;4.35;;;9.30;99.90;;;;;;5043983;28;20206;-61
2022/03/19 08:01:20;;;;;;;9.73;4.30;;;9.30;99.90;;;;;;5045205;28;20227;-61
2022/03/19 08:03:49;;;;;;;7.25;4.55;;;9.40;99.90;;;;;;5046265;28;20933;-61
2022/03/19 08:06:17;;;;;;;5.88;4.30;;;9.50;99.90;;;;;;5049049;28;20213;-61
2022/03/19 08:08:45;;;;;;;7.13;4.15;;;9.60;99.90;;;;;;5051392;28;20315;-61
2022/03/19 08:11:14;;;;;;;5.40;3.90;;;9.80;99.90;;;;;;5045433;28;20643;-63
2022/03/19 08:13:42;;;;;;;6.75;4.88;;;9.90;99.90;;;;;;5045393;28;20306;-62
2022/03/19 08:16:10;;;;;;;7.80;5.18;;;10.00;99.90;;;;;;5041836;28;20212;-61
2022/03/19 08:18:39;;;;;;;6.13;3.90;;;10.00;99.90;;;;;;5044522;28;20204;-61
2022/03/19 08:21:07;;;;;;;7.50;3.78;;;10.10;99.90;;;;;;5045812;28;20703;-61
2022/03/19 08:23:35;;;;;;;6.00;4.63;;;10.30;99.90;;;;;;5044427;28;20207;-61
2022/03/19 08:26:03;;;;;;;8.70;4.32;;;10.50;99.90;;;;;;5045600;28;20291;-63
2022/03/19 08:28:31;;;;;;;6.07;4.18;;;10.60;99.90;;;;;;5044468;28;20764;-61
2022/03/19 08:30:59;;;;;;;7.68;4.45;;;10.70;99.90;;;;;;5045014;28;20199;-61
2022/03/19 08:33:27;;;;;;;8.07;4.68;;;10.70;99.90;;;;;;5043761;28;20985;-61
2022/03/19 08:35:57;;;;;;;5.38;4.25;;;10.80;99.90;;;;;;5045742;28;20235;-61
2022/03/19 08:41:09;;;;;;;7.57;4.32;;;11.10;99.90;;;;;;5006657;28;20290;-61
2022/03/19 08:43:37;;;;;;;5.88;4.82;;;11.00;99.90;;;;;;5045564;28;20291;-63
2022/03/19 08:46:05;;;;;;;6.25;4.30;;;11.10;99.90;;;;;;5048353;28;20199;-61
2022/03/19 08:48:34;;;;;;;5.82;4.40;;;11.10;99.90;;;;;;5048298;28;20254;-63
2022/03/19 08:53:48;;;;;;;8.90;4.85;;;11.10;99.90;;;;;;5040762;28;20827;-64
2022/03/19 08:56:16;;;;;;;10.45;5.35;;;11.20;99.90;;;;;;5042032;28;20899;-62
2022/03/19 08:58:44;;;;;;;6.35;5.55;;;11.40;99.90;;;;;;5043288;28;20269;-60
2022/03/19 09:01:12;;;;;;;8.27;5.22;;;11.20;99.90;;;;;;5044406;28;20228;-61
2022/03/19 09:03:41;;;;;;;7.38;4.95;;;11.30;99.90;;;;;;5044667;28;20734;-62
2022/03/19 09:06:14;;;;;;;7.45;5.35;;;11.30;99.90;;;;;;5043931;28;20230;-61
2022/03/19 09:08:42;;;;;;;8.05;4.90;;;11.40;99.90;;;;;;5045133;28;20200;-62
2022/03/19 09:11:10;;;;;;;6.50;4.95;;;11.50;99.90;;;;;;5044883;28;20275;-62
2022/03/19 09:13:39;;;;;;;8.18;5.45;;;11.60;99.90;;;;;;5044634;28;20254;-62
2022/03/19 09:16:07;;;;;;;5.15;4.43;;;11.70;99.90;;;;;;5042841;28;21305;-61
2022/03/19 09:18:35;;;;;;;6.10;5.47;;;11.70;99.90;;;;;;5045761;28;20223;-62
2022/03/19 09:21:03;;;;;;;6.57;5.25;;;11.90;99.90;;;;;;5044917;28;20214;-62
2022/03/19 09:23:33;;;;;;;9.90;5.10;;;12.20;99.90;;;;;;5044662;28;20678;-62
2022/03/19 09:26:00;;;;;;;7.03;4.72;;;12.30;99.90;;;;;;5048052;28;20283;-61
2022/03/19 09:28:28;;;;;;;8.65;5.38;;;12.20;99.50;;;;;;5048432;28;20733;-62
2022/03/19 09:30:56;;;;;;;8.55;5.55;;;12.40;99.70;;;;;;5049807;28;20301;-61
2022/03/19 09:33:25;;;;;;;10.55;5.93;;;12.50;99.50;;;;;;5048266;28;20691;-62
2022/03/19 09:35:53;;;;;;;9.70;4.93;;;12.70;99.40;;;;;;5047495;28;20259;-61
2022/03/19 09:38:20;;;;;;;7.88;5.35;;;12.80;99.00;;;;;;5048592;28;20255;-62
2022/03/19 09:40:50;;;;;;;6.18;4.90;;;12.70;98.90;;;;;;5046936;28;20200;-62
2022/03/19 09:43:18;;;;;;;6.03;4.80;;;12.40;98.70;;;;;;5047774;28;20290;-62
2022/03/19 09:45:45;;;;;;;7.70;4.50;;;12.40;99.20;;;;;;5049015;28;20869;-62
2022/03/19 09:48:13;;;;;;;7.78;4.95;;;12.60;99.10;;;;;;5051331;28;20233;-62
2022/03/19 09:50:41;;;;;;;6.82;4.53;;;12.80;98.80;;;;;;5048100;28;20222;-62
2022/03/19 09:53:10;;;;;;;9.65;5.10;;;12.80;97.90;;;;;;5047911;28;20295;-62
2022/03/19 09:55:41;;;;;;;7.28;5.25;;;12.80;98.20;;;;;;5047821;28;20278;-62
2022/03/19 09:58:12;;;;;;;8.70;5.25;;;13.00;98.40;;;;;;5047850;28;20319;-62
2022/03/19 10:00:40;;;;;;;8.10;4.50;;;13.30;97.40;;;;;;5046148;28;20202;-62
2022/03/19 10:03:10;;;;;;;6.53;5.10;;;13.20;96.70;;;;;;5047654;28;20216;-62
2022/03/19 10:08:37;;;;;;;7.25;4.57;;;13.40;97.00;;;;;;5045866;28;20250;-62
2022/03/19 10:11:06;;;;;;;6.53;5.03;;;13.50;96.20;;;;;;5046929;28;20320;-61
2022/03/19 10:13:38;;;;;;;8.25;5.20;;;13.50;96.20;;;;;;5046080;28;20323;-62
2022/03/19 10:16:06;;;;;;;8.07;4.95;;;13.50;96.80;;;;;;5049907;28;20199;-62
2022/03/19 10:18:34;;;;;;;7.82;3.72;;;13.60;95.60;;;;;;5046414;28;20257;-62
2022/03/19 10:21:03;;;;;;;6.20;3.50;;;13.60;94.40;;;;;;5048854;28;20192;-63
2022/03/19 10:23:33;;;;;;;4.72;3.60;;;13.60;93.90;;;;;;5040962;28;20210;-62
2022/03/19 10:26:01;;;;;;;5.55;3.75;;;13.70;93.10;;;;;;5046626;28;20196;-62
2022/03/19 10:28:30;;;;;;;4.00;3.45;;;13.50;92.80;;;;;;5048745;28;20199;-63
2022/03/19 10:31:00;;;;;;;5.00;4.13;;;13.80;93.50;;;;;;5052134;28;20278;-63
2022/03/19 10:33:31;;;;;;;8.00;4.47;;;14.00;92.00;;;;;;5053387;28;20333;-62
2022/03/19 10:36:07;;;;;;;4.93;4.40;;;14.10;92.10;;;;;;5052310;28;20691;-63
2022/03/19 10:38:43;;;;;;;6.82;3.90;;;14.10;92.40;;;;;;5053417;28;20230;-63
2022/03/19 10:41:12;;;;;;;6.85;3.90;;;14.10;92.00;;;;;;5053161;28;20207;-62
2022/03/19 10:43:45;;;;;;;5.18;4.25;;;14.40;92.00;;;;;;5053128;28;20667;-63
2022/03/19 10:46:18;;;;;;;6.75;4.70;;;14.60;91.00;;;;;;5054186;28;20231;-63
2022/03/19 10:48:49;;;;;;;8.10;4.55;;;14.70;91.10;;;;;;5053575;28;20567;-62
2022/03/19 10:51:20;;;;;;;4.97;4.32;;;14.30;89.90;;;;;;5052757;28;20318;-63
2022/03/19 10:53:50;;;;;;;8.30;4.43;;;14.10;90.50;;;;;;5053296;28;20295;-63
2022/03/19 10:56:19;;;;;;;6.40;4.20;;;14.20;90.60;;;;;;5053334;28;20231;-62
2022/03/19 10:59:01;;;;;;;7.03;4.50;;;14.20;90.40;;;;;;5053168;28;20207;-62
2022/03/19 11:01:34;;;;;;;6.82;5.05;;;14.10;90.50;;;;;;5052658;28;20188;-63
2022/03/19 11:04:04;;;;;;;6.85;5.38;;;14.30;90.50;;;;;;5052852;28;20204;-61
2022/03/19 11:06:35;;;;;;;6.82;5.00;;;14.60;90.00;;;;;;5052588;28;20705;-62
2022/03/19 11:09:06;;;;;;;6.15;4.50;;;14.60;88.10;;;;;;5052974;28;20208;-63
2022/03/19 11:11:49;;;;;;;4.15;3.78;;;14.70;87.30;;;;;;5052391;28;20231;-63
2022/03/19 11:14:23;;;;;;;5.68;3.53;;;14.70;86.30;;;;;;5052930;28;20231;-62
2022/03/19 11:19:49;;;;;;;4.45;3.50;;;14.80;85.10;;;;;;5034956;28;20302;-63
2022/03/19 11:22:17;;;;;;;4.72;3.17;;;15.00;82.00;;;;;;5052211;28;20258;-62
2022/03/19 11:24:53;;;;;;;5.18;2.13;;;14.90;81.90;;;;;;5052657;28;20236;-63
2022/03/19 11:27:21;;;;;;;5.53;2.38;;;14.90;78.60;;;;;;5052649;28;20298;-63
2022/03/19 11:29:49;;;;;;;3.72;2.25;;;15.00;77.40;;;;;;5052851;28;20231;-62
2022/03/19 11:32:24;;;;;;;3.25;2.47;;;15.20;76.50;;;;;;5052260;28;20279;-63
2022/03/19 11:34:56;;;;;;;3.30;2.20;;;15.40;74.10;;;;;;5052196;28;20230;-63
2022/03/19 11:37:25;;;;;;;3.25;2.13;;;15.70;73.30;;;;;;5052363;28;20263;-62
2022/03/19 11:40:05;;;;;;;2.85;2.08;;;15.60;71.30;;;;;;5052174;28;20290;-62
2022/03/19 11:42:34;;;;;;;4.10;2.10;;;15.40;70.00;;;;;;5052088;28;20707;-63
2022/03/19 11:45:11;;;;;;;3.10;1.98;;;15.30;71.50;;;;;;5052257;28;20286;-62
2022/03/19 11:47:40;;;;;;;3.65;1.88;;;15.60;69.90;;;;;;5048240;28;20223;-62
2022/03/19 11:50:19;;;;;;;3.22;2.08;;;15.70;70.00;;;;;;5052028;28;20294;-62
2022/03/19 11:53:05;;;;;;;3.65;1.75;;;15.90;68.20;;;;;;5051913;28;20231;-62
2022/03/19 11:55:38;;;;;;;4.63;1.55;;;16.10;65.40;;;;;;5051953;28;20235;-62
2022/03/19 11:58:13;;;;;;;2.38;1.55;;;15.70;64.70;;;;;;5052256;28;20650;-63
2022/03/19 12:00:41;;;;;;;2.08;1.30;;;15.50;65.50;;;;;;5051705;28;20231;-63
2022/03/19 12:03:13;;;;;;;1.45;1.05;;;15.90;64.70;;;;;;5051659;28;20548;-62
2022/03/19 12:05:43;;;;;;;1.65;1.20;;;16.00;62.60;;;;;;5045603;28;20204;-62
2022/03/19 12:08:13;;;;;;;3.53;1.10;;;16.00;60.60;;;;;;5045605;28;20240;-62
2022/03/19 12:10:57;;;;;;;1.83;1.00;;;15.70;60.30;;;;;;5051667;28;20292;-63
2022/03/19 12:13:42;;;;;;;2.42;1.48;;;15.60;61.20;;;;;;5051830;28;20656;-62
2022/03/19 12:16:12;;;;;;;2.00;1.55;;;15.40;60.30;;;;;;5051775;28;20204;-62
2022/03/19 12:18:46;;;;;;;2.10;1.33;;;15.30;60.80;;;;;;5051329;28;20204;-62
2022/03/19 12:21:21;;;;;;;2.75;1.38;;;15.10;60.80;;;;;;5051587;28;20241;-62
2022/03/19 12:24:09;;;;;;;2.00;1.80;;;15.30;61.10;;;;;;5051247;28;20218;-63
2022/03/19 12:26:39;;;;;;;4.32;1.58;;;15.50;60.90;;;;;;5051834;28;20644;-62
2022/03/19 12:29:10;;;;;;;2.13;1.45;;;15.40;60.50;;;;;;5051435;28;20635;-63
2022/03/19 12:31:41;;;;;;;2.42;1.10;;;15.40;60.30;;;;;;5051192;28;20311;-64
2022/03/19 12:34:16;;;;;;;3.70;1.42;;;15.40;60.10;;;;;;5051220;28;20610;-63
2022/03/19 12:36:44;;;;;;;2.30;1.80;;;15.50;61.00;;;;;;5051573;28;20680;-63
2022/03/19 12:39:13;;;;;;;4.75;2.15;;;15.50;61.10;;;;;;5051080;28;20228;-62
2022/03/19 12:41:41;;;;;;;2.28;1.90;;;15.50;60.90;;;;;;5050739;28;20282;-64
2022/03/19 12:44:31;;;;;;;2.40;1.60;;;15.40;59.20;;;;;;5048541;28;20204;-63
2022/03/19 12:47:01;;;;;;;3.30;1.58;;;15.30;58.70;;;;;;5053971;28;20255;-64
2022/03/19 12:49:31;;;;;;;1.55;1.45;;;15.30;61.70;;;;;;5051033;28;20200;-61
2022/03/19 12:52:07;;;;;;;2.40;1.58;;;15.50;61.50;;;;;;5049714;28;20721;-63
2022/03/19 12:54:35;;;;;;;4.18;1.73;;;15.40;61.20;;;;;;5049865;28;20329;-62
2022/03/19 12:57:10;;;;;;;2.30;1.77;;;15.40;61.00;;;;;;5049594;28;20703;-61
2022/03/19 12:59:46;;;;;;;2.88;1.60;;;15.30;60.80;;;;;;5046420;28;20188;-62
2022/03/19 13:02:15;;;;;;;3.85;1.55;;;15.10;60.80;;;;;;5048828;28;20199;-61
2022/03/19 13:04:46;;;;;;;5.90;1.88;;;15.20;60.60;;;;;;5050065;28;20260;-62
2022/03/19 13:07:15;;;;;;;5.28;1.80;;;15.30;61.80;;;;;;5049666;28;20232;-61
2022/03/19 13:09:43;;;;;;;2.35;1.42;;;15.40;62.90;;;;;;5049830;28;20278;-61
2022/03/19 13:12:17;;;;;;;3.08;1.45;;;15.30;62.70;;;;;;5049506;28;20303;-62
2022/03/19 13:14:50;;;;;;;3.20;1.63;;;15.40;61.10;;;;;;5050948;28;20204;-62
2022/03/19 13:17:19;;;;;;;3.35;1.73;;;15.20;61.00;;;;;;5051227;28;20224;-62
2022/03/19 13:19:49;;;;;;;2.25;1.75;;;15.30;62.50;;;;;;5051049;28;20238;-62
2022/03/19 13:22:19;;;;;;;2.67;1.60;;;15.40;62.50;;;;;;5044345;28;20274;-61
2022/03/19 13:24:53;;;;;;;2.30;1.50;;;15.60;62.80;;;;;;5044988;28;20631;-62
2022/03/19 13:27:21;;;;;;;1.88;1.30;;;15.60;62.80;;;;;;5050763;28;20220;-62
2022/03/19 13:29:48;;;;;;;2.85;1.67;;;15.30;62.10;;;;;;5050994;28;20196;-62